createdAt,value
2022-07-30T04:01:32.622Z,19.30
2022-07-30T04:04:06.694Z,19.40
2022-07-30T04:06:39.586Z,19.40
2022-07-30T04:09:09.958Z,19.40
2022-07-30T04:11:41.332Z,19.50
2022-07-30T04:14:10.229Z,19.50
2022-07-30T04:16:47.538Z,19.50
2022-07-30T04:19:23.506Z,19.60
2022-07-30T04:21:54.890Z,19.60
2022-07-30T04:24:24.681Z,19.60
2022-07-30T04:26:53.764Z,19.60
2022-07-30T04:29:24.727Z,19.70
2022-07-30T04:31:56.088Z,19.70
2022-07-30T04:34:24.247Z,19.80
2022-07-30T04:36:52.353Z,19.80
2022-07-30T04:39:20.695Z,19.90
2022-07-30T04:41:50.190Z,19.90
2022-07-30T04:44:19.892Z,19.90
2022-07-30T04:46:48.502Z,20.00
2022-07-30T04:49:19.943Z,20.10
2022-07-30T04:51:50.069Z,20.20
2022-07-30T04:54:20.497Z,20.20
2022-07-30T04:56:53.802Z,20.20
2022-07-30T04:59:25.806Z,20.30
2022-07-30T05:01:58.313Z,20.30
2022-07-30T05:04:30.123Z,20.40
2022-07-30T05:07:00.333Z,20.40
2022-07-30T05:09:29.477Z,20.50
2022-07-30T05:11:59.858Z,20.50
2022-07-30T05:14:29.734Z,20.60
2022-07-30T05:16:58.285Z,20.60
2022-07-30T05:19:28.072Z,20.60
2022-07-30T05:21:56.684Z,20.70
2022-07-30T05:24:24.769Z,20.70
2022-07-30T05:26:53.250Z,20.80
2022-07-30T05:29:21.376Z,20.80
2022-07-30T05:31:49.751Z,20.90
2022-07-30T05:34:18.080Z,21.00
2022-07-30T05:36:47.577Z,21.00
2022-07-30T05:39:16.748Z,21.10
2022-07-30T05:41:44.813Z,21.20
2022-07-30T05:44:13.113Z,21.30
2022-07-30T05:46:41.599Z,21.40
2022-07-30T05:49:09.832Z,21.50
2022-07-30T05:51:38.014Z,21.60
2022-07-30T05:54:07.703Z,21.80
2022-07-30T05:56:36.005Z,21.80
2022-07-30T05:59:04.806Z,21.90
2022-07-30T06:01:32.921Z,22.00
2022-07-30T06:04:01.142Z,22.00
2022-07-30T06:06:29.288Z,22.00
2022-07-30T06:08:57.406Z,22.10
2022-07-30T06:11:26.794Z,22.10
2022-07-30T06:13:54.902Z,22.10
2022-07-30T06:16:23.128Z,22.10
2022-07-30T06:18:51.368Z,22.00
2022-07-30T06:21:19.470Z,22.10
2022-07-30T06:23:47.586Z,22.10
2022-07-30T06:26:16.060Z,22.10
2022-07-30T06:28:45.492Z,22.10
2022-07-30T06:31:13.601Z,22.20
2022-07-30T06:33:41.797Z,22.20
2022-07-30T06:36:14.351Z,22.20
2022-07-30T06:38:42.819Z,22.20
2022-07-30T06:41:11.432Z,22.20
2022-07-30T06:43:39.598Z,22.40
2022-07-30T06:46:09.147Z,22.50
2022-07-30T06:48:37.628Z,22.60
2022-07-30T06:51:05.842Z,22.70
2022-07-30T06:53:33.896Z,22.90
2022-07-30T06:56:10.450Z,22.90
2022-07-30T06:58:38.577Z,23.00
2022-07-30T07:01:11.199Z,23.10
2022-07-30T07:03:40.714Z,23.20
2022-07-30T07:06:09.460Z,23.30
2022-07-30T07:08:38.353Z,23.40
2022-07-30T07:11:06.519Z,23.50
2022-07-30T07:13:34.714Z,23.50
2022-07-30T07:16:03.065Z,23.60
2022-07-30T07:18:32.483Z,23.70
2022-07-30T07:21:00.590Z,23.80
2022-07-30T07:23:41.467Z,24.00
2022-07-30T07:26:12.107Z,24.10
2022-07-30T07:28:41.142Z,24.10
2022-07-30T07:31:09.499Z,24.20
2022-07-30T07:33:40.527Z,24.30
2022-07-30T07:36:08.805Z,24.40
2022-07-30T07:38:37.811Z,24.60
2022-07-30T07:41:06.436Z,24.70
2022-07-30T07:43:34.603Z,24.90
2022-07-30T07:46:02.765Z,24.90
2022-07-30T07:48:31.058Z,25.10
2022-07-30T07:51:01.040Z,25.30
2022-07-30T07:53:29.175Z,25.40
2022-07-30T07:55:57.498Z,25.60
2022-07-30T07:58:26.459Z,25.80
2022-07-30T08:00:55.521Z,26.00
2022-07-30T08:03:23.866Z,26.20
2022-07-30T08:06:00.991Z,26.30
2022-07-30T08:08:37.499Z,26.50
2022-07-30T08:11:07.011Z,26.60
2022-07-30T08:13:49.156Z,26.70
2022-07-30T08:16:21.372Z,26.70
2022-07-30T08:18:49.757Z,26.80
2022-07-30T08:21:18.007Z,26.80
2022-07-30T08:23:47.435Z,26.90
2022-07-30T08:26:15.557Z,26.90
2022-07-30T08:28:45.531Z,26.90
2022-07-30T08:31:13.655Z,26.90
2022-07-30T08:33:41.701Z,27.10
2022-07-30T08:36:10.351Z,27.10
2022-07-30T08:38:39.634Z,27.10
2022-07-30T08:41:09.444Z,27.20
2022-07-30T08:43:38.499Z,27.30
2022-07-30T08:46:11.055Z,27.40
2022-07-30T08:48:41.951Z,27.50
2022-07-30T08:51:11.303Z,27.70
2022-07-30T08:53:39.908Z,27.70
2022-07-30T08:56:09.520Z,27.70
2022-07-30T08:58:37.585Z,27.80
2022-07-30T09:01:07.644Z,27.90
2022-07-30T09:03:44.226Z,28.00
2022-07-30T09:06:13.235Z,28.10
2022-07-30T09:08:42.532Z,28.30
2022-07-30T09:11:12.408Z,28.50
2022-07-30T09:13:43.054Z,28.60
2022-07-30T09:16:23.278Z,28.70
2022-07-30T09:18:52.489Z,28.70
2022-07-30T09:21:24.079Z,28.80
2022-07-30T09:24:01.978Z,28.90
2022-07-30T09:26:32.903Z,28.90
2022-07-30T09:29:18.083Z,29.00
2022-07-30T09:31:56.592Z,29.00
2022-07-30T09:34:27.337Z,29.00
2022-07-30T09:36:57.773Z,29.10
2022-07-30T09:39:34.306Z,29.30
2022-07-30T09:42:05.620Z,29.30
2022-07-30T09:44:33.864Z,29.40
2022-07-30T09:47:02.881Z,29.40
2022-07-30T09:49:31.537Z,29.50
2022-07-30T09:51:59.703Z,29.50
2022-07-30T09:57:57.733Z,29.50
2022-07-30T10:00:29.606Z,29.40
2022-07-30T10:02:57.789Z,29.30
2022-07-30T10:05:25.908Z,29.30
2022-07-30T10:07:58.563Z,29.30
2022-07-30T10:10:29.669Z,29.20
2022-07-30T10:13:04.500Z,29.20
2022-07-30T10:15:35.049Z,29.20
2022-07-30T10:18:06.007Z,29.20
2022-07-30T10:20:35.651Z,29.30
2022-07-30T10:23:08.234Z,29.30
2022-07-30T10:25:49.656Z,29.50
2022-07-30T10:28:25.390Z,29.60
2022-07-30T10:30:54.652Z,29.80
2022-07-30T10:33:36.305Z,30.00
2022-07-30T10:36:06.332Z,30.10
2022-07-30T10:38:43.169Z,30.20
2022-07-30T10:41:42.769Z,30.40
2022-07-30T10:45:02.528Z,30.40
2022-07-30T10:47:40.380Z,30.40
2022-07-30T10:50:15.829Z,30.60
2022-07-30T10:52:51.443Z,30.70
2022-07-30T10:55:37.447Z,30.70
2022-07-30T10:58:09.675Z,30.80
2022-07-30T11:01:00.606Z,30.80
2022-07-30T11:03:40.566Z,30.90
2022-07-30T11:06:29.404Z,30.90
2022-07-30T11:08:58.294Z,31.00
2022-07-30T11:12:05.763Z,30.90
2022-07-30T11:15:06.793Z,30.80
2022-07-30T11:18:11.440Z,30.70
2022-07-30T11:20:48.283Z,30.50
2022-07-30T11:23:39.980Z,30.50
2022-07-30T11:26:14.366Z,30.60
2022-07-30T11:28:45.740Z,30.70
2022-07-30T11:31:56.590Z,30.90
2022-07-30T11:34:31.038Z,31.10
2022-07-30T11:37:18.922Z,31.40
2022-07-30T11:40:13.595Z,31.50
2022-07-30T11:42:43.580Z,31.90
2022-07-30T11:45:33.326Z,32.30
2022-07-30T11:48:01.942Z,32.70
2022-07-30T11:50:34.219Z,33.50
2022-07-30T11:53:05.856Z,34.40
2022-07-30T11:55:37.277Z,35.30
2022-07-30T11:58:10.473Z,36.30
2022-07-30T12:00:41.703Z,37.00
2022-07-30T12:03:16.485Z,37.30
2022-07-30T12:05:52.620Z,37.40
2022-07-30T12:08:33.315Z,37.10
2022-07-30T12:11:04.798Z,37.40
2022-07-30T12:13:45.420Z,37.80
2022-07-30T12:16:17.364Z,38.20
2022-07-30T12:18:46.776Z,38.10
2022-07-30T12:21:17.580Z,37.90
2022-07-30T12:23:56.388Z,38.10
2022-07-30T12:26:27.170Z,38.60
2022-07-30T12:28:57.039Z,39.10
2022-07-30T12:31:25.412Z,39.20
2022-07-30T12:33:58.870Z,39.60
2022-07-30T12:36:34.999Z,39.70
2022-07-30T12:39:06.652Z,39.90
2022-07-30T12:41:46.654Z,40.40
2022-07-30T12:44:39.811Z,40.40
2022-07-30T12:47:20.864Z,40.60
2022-07-30T12:49:50.255Z,41.20
2022-07-30T12:52:30.918Z,41.90
2022-07-30T12:55:05.644Z,42.10
2022-07-30T12:57:57.081Z,42.80
2022-07-30T13:00:28.739Z,44.60
2022-07-30T13:02:57.694Z,46.30
2022-07-30T13:05:49.738Z,47.80
2022-07-30T13:08:19.451Z,49.40
2022-07-30T13:10:59.652Z,50.70
2022-07-30T13:13:28.528Z,51.50
2022-07-30T13:16:01.909Z,52.10
2022-07-30T13:18:31.450Z,52.00
2022-07-30T13:21:00.882Z,50.70
2022-07-30T13:23:30.582Z,49.80
2022-07-30T13:25:58.905Z,49.80
2022-07-30T13:28:27.937Z,50.10
2022-07-30T13:30:57.573Z,51.10
2022-07-30T13:33:25.700Z,52.10
2022-07-30T13:35:54.218Z,51.10
2022-07-30T13:38:22.331Z,50.20
2022-07-30T13:40:51.939Z,50.20
2022-07-30T13:43:21.203Z,50.60
2022-07-30T13:45:49.321Z,50.90
2022-07-30T13:48:17.816Z,50.20
2022-07-30T13:50:46.704Z,49.90
2022-07-30T13:53:15.074Z,50.40
2022-07-30T13:55:43.485Z,51.60
2022-07-30T13:58:12.893Z,52.90
2022-07-30T14:00:41.207Z,54.20
2022-07-30T14:03:12.024Z,55.00
2022-07-30T14:05:42.094Z,55.70
2022-07-30T14:08:12.814Z,56.60
2022-07-30T14:10:41.783Z,57.30
2022-07-30T14:13:19.019Z,57.80
2022-07-30T14:15:49.589Z,57.70
2022-07-30T14:18:18.012Z,57.30
2022-07-30T14:20:48.742Z,57.20
2022-07-30T14:23:17.644Z,57.10
2022-07-30T14:25:46.031Z,56.60
2022-07-30T14:28:16.335Z,56.60
2022-07-30T14:30:44.685Z,55.60
2022-07-30T14:33:12.743Z,55.40
2022-07-30T14:35:40.833Z,55.50
2022-07-30T14:38:09.024Z,56.00
2022-07-30T14:40:37.257Z,56.00
2022-07-30T14:43:06.553Z,56.30
2022-07-30T14:45:36.567Z,56.30
2022-07-30T14:48:05.173Z,56.20
2022-07-30T14:50:33.374Z,56.00
2022-07-30T14:53:01.574Z,56.40
2022-07-30T14:55:29.907Z,57.00
2022-07-30T14:57:57.959Z,57.50
2022-07-30T15:00:26.009Z,58.20
2022-07-30T15:02:55.636Z,58.40
2022-07-30T15:05:23.930Z,58.70
2022-07-30T15:07:52.193Z,58.70
2022-07-30T15:10:20.558Z,58.20
2022-07-30T15:12:50.702Z,56.50
2022-07-30T15:15:19.100Z,55.50
2022-07-30T15:17:50.068Z,54.90
2022-07-30T15:20:20.539Z,54.60
2022-07-30T15:22:48.612Z,53.70
2022-07-30T15:25:16.733Z,53.50
2022-07-30T15:27:44.888Z,53.30
2022-07-30T15:30:14.177Z,53.50
2022-07-30T15:32:42.218Z,53.80
2022-07-30T15:35:13.645Z,53.30
2022-07-30T15:37:43.510Z,53.20
2022-07-30T15:40:12.118Z,53.40
2022-07-30T15:42:40.710Z,53.60
2022-07-30T15:45:18.240Z,53.80
2022-07-30T15:47:47.451Z,52.50
2022-07-30T15:50:17.208Z,50.10
2022-07-30T15:52:46.682Z,48.80
2022-07-30T15:55:14.735Z,48.80
2022-07-30T15:57:43.303Z,49.00
2022-07-30T16:00:13.060Z,48.90
2022-07-30T16:02:42.018Z,49.10
2022-07-30T16:05:14.168Z,49.40
2022-07-30T16:07:42.830Z,49.80
2022-07-30T16:10:12.392Z,50.40
2022-07-30T16:12:41.963Z,50.60
2022-07-30T16:15:11.458Z,50.80
2022-07-30T16:17:40.115Z,50.80
2022-07-30T16:20:10.190Z,50.80
2022-07-30T16:22:39.265Z,50.40
2022-07-30T16:25:08.074Z,50.20
2022-07-30T16:27:37.595Z,49.80
2022-07-30T16:30:07.323Z,49.60
2022-07-30T16:32:35.403Z,49.40
2022-07-30T16:35:03.561Z,49.60
2022-07-30T16:37:31.680Z,49.50
2022-07-30T16:39:59.840Z,49.10
2022-07-30T16:42:27.914Z,48.90
2022-07-30T16:44:57.321Z,48.50
2022-07-30T16:47:25.457Z,48.00
2022-07-30T16:49:53.597Z,47.70
2022-07-30T16:52:21.637Z,47.60
2022-07-30T16:54:54.798Z,47.30
2022-07-30T16:57:22.856Z,47.10
2022-07-30T16:59:50.952Z,46.40
2022-07-30T17:02:20.413Z,45.90
2022-07-30T17:04:48.539Z,45.40
2022-07-30T17:07:17.059Z,45.10
2022-07-30T17:09:45.152Z,45.00
2022-07-30T17:12:23.295Z,44.60
2022-07-30T17:14:53.667Z,44.70
2022-07-30T17:17:23.313Z,44.60
2022-07-30T17:19:51.699Z,44.30
2022-07-30T17:22:19.797Z,44.30
2022-07-30T17:24:47.843Z,44.20
2022-07-30T17:27:15.941Z,43.60
2022-07-30T17:29:50.045Z,42.90
2022-07-30T17:32:20.072Z,42.40
2022-07-30T17:34:50.210Z,42.20
2022-07-30T17:37:18.456Z,42.00
2022-07-30T17:40:28.228Z,41.70
2022-07-30T17:42:35.161Z,41.30
2022-07-30T17:45:04.950Z,40.70
2022-07-30T17:47:33.760Z,40.20
2022-07-30T17:50:05.186Z,39.90
2022-07-30T17:52:33.383Z,39.30
2022-07-30T17:55:01.639Z,38.80
2022-07-30T17:57:29.675Z,38.20
2022-07-30T17:59:57.825Z,37.80
2022-07-30T18:02:27.666Z,37.30
2022-07-30T18:04:57.193Z,36.40
2022-07-30T18:07:26.926Z,35.40
2022-07-30T18:09:55.076Z,34.40
2022-07-30T18:12:23.378Z,33.40
2022-07-30T18:14:51.972Z,32.50
2022-07-30T18:17:20.184Z,31.50
2022-07-30T18:19:48.285Z,30.50
2022-07-30T18:22:17.232Z,29.80
2022-07-30T18:25:00.315Z,29.20
2022-07-30T18:27:29.800Z,28.60
2022-07-30T18:29:59.205Z,28.20
2022-07-30T18:32:27.274Z,27.80
2022-07-30T18:34:55.420Z,27.40
2022-07-30T18:37:23.529Z,27.10
2022-07-30T18:39:51.590Z,26.70
2022-07-30T18:42:21.020Z,26.40
2022-07-30T18:44:51.925Z,26.10
2022-07-30T18:47:20.008Z,25.90
2022-07-30T18:49:50.165Z,25.70
2022-07-30T18:52:18.677Z,25.50
2022-07-30T18:54:46.745Z,25.30
2022-07-30T18:57:14.904Z,24.90
2022-07-30T18:59:44.321Z,24.60
2022-07-30T19:02:12.433Z,24.30
2022-07-30T19:04:40.870Z,24.10
2022-07-30T19:07:09.052Z,23.90
2022-07-30T19:09:37.459Z,23.70
2022-07-30T19:12:06.823Z,23.60
2022-07-30T19:14:35.254Z,23.40
2022-07-30T19:17:13.580Z,23.40
2022-07-30T19:19:41.971Z,23.30
2022-07-30T19:22:10.155Z,23.20
2022-07-30T19:24:38.497Z,23.20
2022-07-30T19:27:09.941Z,23.10
2022-07-30T19:29:42.061Z,23.10
2022-07-30T19:32:11.778Z,23.00
2022-07-30T19:34:43.341Z,23.00
2022-07-30T19:37:11.787Z,22.90
2022-07-30T19:40:06.368Z,22.80
2022-07-30T19:42:27.975Z,22.80
2022-07-30T19:44:58.608Z,22.70
2022-07-30T19:47:35.322Z,22.70
2022-07-30T19:50:10.053Z,22.60
2022-07-30T19:52:38.541Z,22.60
2022-07-30T19:55:17.317Z,22.50
2022-07-30T19:57:56.058Z,22.50
2022-07-30T20:00:25.456Z,22.40
2022-07-30T20:02:54.961Z,22.30
2022-07-30T20:05:24.721Z,22.30
2022-07-30T20:07:53.336Z,22.10
2022-07-30T20:10:23.967Z,22.10
2022-07-30T20:12:52.105Z,22.00
2022-07-30T20:15:20.631Z,21.90
2022-07-30T20:17:48.671Z,21.90
2022-07-30T20:20:18.157Z,21.80
2022-07-30T20:22:54.573Z,21.80
2022-07-30T20:25:22.702Z,21.70
2022-07-30T20:27:51.067Z,21.70
2022-07-30T20:30:25.195Z,21.70
2022-07-30T20:32:53.740Z,21.60
2022-07-30T20:35:26.504Z,21.60
2022-07-30T20:37:56.366Z,21.60
2022-07-30T20:40:26.781Z,21.50
2022-07-30T20:42:55.614Z,21.50
2022-07-30T20:45:25.168Z,21.50
2022-07-30T20:47:56.432Z,21.40
2022-07-30T20:50:30.830Z,21.40
2022-07-30T20:53:00.224Z,21.40
2022-07-30T20:55:28.967Z,21.30
2022-07-30T20:58:06.951Z,21.30
